createdAt,value
2018-06-15T00:00:42.158Z,18.27
2018-06-15T00:03:09.839Z,18.90
2018-06-15T00:05:37.266Z,25.23
2018-06-15T00:08:04.883Z,17.80
2018-06-15T00:10:32.326Z,17.03
2018-06-15T00:12:59.849Z,19.40
2018-06-15T00:15:27.338Z,23.20
2018-06-15T00:17:54.771Z,22.47
2018-06-15T00:20:22.366Z,22.23
2018-06-15T00:22:49.807Z,28.37
2018-06-15T00:25:17.260Z,20.60
2018-06-15T00:27:44.879Z,17.80
2018-06-15T00:30:12.387Z,17.40
2018-06-15T00:32:39.874Z,20.30
2018-06-15T00:35:07.303Z,17.60
2018-06-15T00:37:34.762Z,18.40
2018-06-15T00:40:02.294Z,21.27
2018-06-15T00:42:30.027Z,18.60
2018-06-15T00:44:57.454Z,19.87
2018-06-15T00:47:24.906Z,32.40
2018-06-15T00:49:52.404Z,22.93
2018-06-15T00:52:19.834Z,21.17
2018-06-15T00:54:47.279Z,23.33
2018-06-15T00:57:20.453Z,22.83
2018-06-15T00:59:47.925Z,28.70
2018-06-15T01:02:15.529Z,24.87
2018-06-15T01:04:42.978Z,26.40
2018-06-15T01:07:10.394Z,28.57
2018-06-15T01:09:37.833Z,22.40
2018-06-15T01:12:05.723Z,24.37
2018-06-15T01:14:33.439Z,27.53
2018-06-15T01:17:00.889Z,26.13
2018-06-15T01:19:28.653Z,35.23
2018-06-15T01:21:56.094Z,30.50
2018-06-15T01:24:24.073Z,30.63
2018-06-15T01:26:51.602Z,26.53
2018-06-15T01:29:19.032Z,28.63
2018-06-15T01:31:46.451Z,28.67
2018-06-15T01:34:13.875Z,26.80
2018-06-15T01:36:41.266Z,26.13
2018-06-15T01:39:09.958Z,32.00
2018-06-15T01:41:37.381Z,31.80
2018-06-15T01:44:04.983Z,31.03
2018-06-15T01:46:32.458Z,32.50
2018-06-15T01:48:59.951Z,29.03
2018-06-15T01:51:27.446Z,32.43
2018-06-15T01:53:54.939Z,26.40
2018-06-15T01:56:22.323Z,28.33
2018-06-15T01:58:49.743Z,25.90
2018-06-15T02:01:17.242Z,32.23
2018-06-15T02:03:44.732Z,27.23
2018-06-15T02:06:12.206Z,40.70
2018-06-15T02:08:39.672Z,36.60
2018-06-15T02:11:07.088Z,27.10
2018-06-15T02:13:34.552Z,27.73
2018-06-15T02:16:02.097Z,31.13
2018-06-15T02:18:29.601Z,23.50
2018-06-15T02:20:56.995Z,28.40
2018-06-15T02:23:24.413Z,28.93
2018-06-15T02:25:51.860Z,28.80
2018-06-15T02:28:19.323Z,32.50
2018-06-15T02:30:46.845Z,32.33
2018-06-15T02:33:14.274Z,31.03
2018-06-15T02:35:41.730Z,29.47
2018-06-15T02:38:09.161Z,27.83
2018-06-15T02:40:36.647Z,24.07
2018-06-15T02:43:04.078Z,28.30
2018-06-15T02:45:31.664Z,25.67
2018-06-15T02:47:59.030Z,30.23
2018-06-15T02:50:26.483Z,26.97
2018-06-15T02:52:54.282Z,31.50
2018-06-15T02:55:21.795Z,30.63
2018-06-15T02:57:49.215Z,25.60
2018-06-15T03:00:16.848Z,25.50
2018-06-15T03:02:44.337Z,23.20
2018-06-15T03:05:11.769Z,23.70
2018-06-15T03:07:39.253Z,27.10
2018-06-15T03:10:06.767Z,29.67
2018-06-15T03:12:34.215Z,25.40
2018-06-15T03:15:01.862Z,27.60
2018-06-15T03:17:29.238Z,28.37
2018-06-15T03:19:56.634Z,23.10
2018-06-15T03:22:24.088Z,22.93
2018-06-15T03:24:51.506Z,20.60
2018-06-15T03:27:18.983Z,29.63
2018-06-15T03:29:46.438Z,25.30
2018-06-15T03:32:13.852Z,22.53
2018-06-15T03:34:41.230Z,25.80
2018-06-15T03:37:08.720Z,22.67
2018-06-15T03:39:36.399Z,24.17
2018-06-15T03:42:04.097Z,31.93
2018-06-15T03:44:31.695Z,28.10
2018-06-15T03:46:59.243Z,33.73
2018-06-15T03:49:27.175Z,31.63
2018-06-15T03:51:54.622Z,35.83
2018-06-15T03:54:22.362Z,36.70
2018-06-15T03:56:49.843Z,35.80
2018-06-15T03:59:17.283Z,43.20
2018-06-15T04:01:44.673Z,25.97
2018-06-15T04:04:12.199Z,25.37
2018-06-15T04:06:39.832Z,29.23
2018-06-15T04:09:08.225Z,25.20
2018-06-15T04:11:36.225Z,22.03
2018-06-15T04:14:03.838Z,25.87
2018-06-15T04:16:31.285Z,24.40
2018-06-15T04:18:58.811Z,21.10
2018-06-15T04:21:26.377Z,24.63
2018-06-15T04:23:53.874Z,23.47
2018-06-15T04:26:21.277Z,28.20
2018-06-15T04:28:48.827Z,21.37
2018-06-15T04:31:16.262Z,68.83
2018-06-15T04:33:43.749Z,80.43
2018-06-15T04:36:11.173Z,26.30
2018-06-15T04:38:38.643Z,20.47
2018-06-15T04:41:06.101Z,28.97
2018-06-15T04:43:33.561Z,25.70
2018-06-15T04:46:01.046Z,22.93
2018-06-15T04:48:28.570Z,29.37
2018-06-15T04:50:56.019Z,29.80
2018-06-15T04:53:23.451Z,25.80
2018-06-15T04:55:50.925Z,23.17
2018-06-15T04:58:18.549Z,22.30
2018-06-15T05:00:46.012Z,51.00
2018-06-15T05:03:13.893Z,51.27
2018-06-15T05:05:42.488Z,32.63
2018-06-15T05:08:10.171Z,24.10
2018-06-15T05:10:37.611Z,26.20
2018-06-15T05:13:05.277Z,29.93
2018-06-15T05:15:32.849Z,27.50
2018-06-15T05:18:00.475Z,30.93
2018-06-15T05:20:27.982Z,26.70
2018-06-15T05:22:55.387Z,27.33
2018-06-15T05:25:22.823Z,97.73
2018-06-15T05:27:50.281Z,136.13
2018-06-15T05:30:17.759Z,31.60
2018-06-15T05:32:45.302Z,29.60
2018-06-15T05:35:12.756Z,31.87
2018-06-15T05:37:40.162Z,32.03
2018-06-15T05:40:07.630Z,32.13
2018-06-15T05:42:35.223Z,34.17
2018-06-15T05:45:02.698Z,35.60
2018-06-15T05:47:30.281Z,32.87
2018-06-15T05:49:57.733Z,29.63
2018-06-15T05:52:25.203Z,33.33
2018-06-15T05:54:52.666Z,40.33
2018-06-15T05:57:20.082Z,29.57
2018-06-15T05:59:47.526Z,31.60
2018-06-15T06:02:14.928Z,34.20
2018-06-15T06:04:42.386Z,32.90
2018-06-15T06:07:09.943Z,38.23
2018-06-15T06:09:37.379Z,35.10
2018-06-15T06:12:05.294Z,33.03
2018-06-15T06:14:32.731Z,31.80
2018-06-15T06:17:00.172Z,37.00
2018-06-15T06:19:27.731Z,33.07
2018-06-15T06:21:55.259Z,36.87
2018-06-15T06:24:22.674Z,35.03
2018-06-15T06:26:50.183Z,33.00
2018-06-15T06:29:17.584Z,38.87
2018-06-15T06:31:45.089Z,32.50
2018-06-15T06:34:12.513Z,33.07
2018-06-15T06:36:39.925Z,36.53
2018-06-15T06:39:09.414Z,37.93
2018-06-15T06:41:36.935Z,37.43
2018-06-15T06:44:04.585Z,39.90
2018-06-15T06:46:32.038Z,31.53
2018-06-15T06:48:59.601Z,36.10
2018-06-15T06:51:27.026Z,37.30
2018-06-15T06:53:54.439Z,33.73
2018-06-15T06:56:21.883Z,38.77
2018-06-15T06:58:49.423Z,37.73
2018-06-15T07:01:17.125Z,29.60
2018-06-15T07:03:44.529Z,32.47
2018-06-15T07:06:12.129Z,31.50
2018-06-15T07:08:39.662Z,30.07
2018-06-15T07:11:07.106Z,34.77
2018-06-15T07:13:34.553Z,30.70
2018-06-15T07:16:02.186Z,36.00
2018-06-15T07:18:29.944Z,29.83
2018-06-15T07:20:57.375Z,29.10
2018-06-15T07:23:24.795Z,31.87
2018-06-15T07:25:52.266Z,31.77
2018-06-15T07:28:19.646Z,29.37
2018-06-15T07:30:47.151Z,26.87
2018-06-15T07:33:14.606Z,28.43
2018-06-15T07:35:42.190Z,28.43
2018-06-15T07:38:09.636Z,32.17
2018-06-15T07:40:37.036Z,29.40
2018-06-15T07:43:04.603Z,30.33
2018-06-15T07:45:32.011Z,31.63
2018-06-15T07:47:59.662Z,28.50
2018-06-15T07:50:27.108Z,28.47
2018-06-15T07:52:54.550Z,28.73
2018-06-15T07:55:22.090Z,27.10
2018-06-15T07:57:49.549Z,20.30
2018-06-15T08:00:17.014Z,21.00
2018-06-15T08:02:44.511Z,19.70
2018-06-15T08:05:12.054Z,21.83
2018-06-15T08:07:39.533Z,28.83
2018-06-15T08:10:07.006Z,22.97
2018-06-15T08:12:34.446Z,22.30
2018-06-15T08:15:01.943Z,19.93
2018-06-15T08:17:29.411Z,22.87
2018-06-15T08:19:56.907Z,21.90
2018-06-15T08:22:24.454Z,18.50
2018-06-15T08:24:51.923Z,16.90
2018-06-15T08:27:19.326Z,17.37
2018-06-15T08:29:46.758Z,14.20
2018-06-15T08:32:14.394Z,16.33
2018-06-15T08:34:41.982Z,15.37
2018-06-15T08:37:09.409Z,12.63
2018-06-15T08:39:37.121Z,15.20
2018-06-15T08:42:04.680Z,12.10
2018-06-15T08:44:32.638Z,9.13
2018-06-15T08:47:00.063Z,11.53
2018-06-15T08:49:27.595Z,13.90
2018-06-15T08:51:55.484Z,10.60
2018-06-15T08:54:22.915Z,9.23
2018-06-15T08:56:50.505Z,11.03
2018-06-15T08:59:18.107Z,7.83
2018-06-15T09:01:45.556Z,12.30
2018-06-15T09:04:13.025Z,12.73
2018-06-15T09:06:40.505Z,7.40
2018-06-15T09:09:08.201Z,8.50
2018-06-15T09:11:35.647Z,9.33
2018-06-15T09:14:03.209Z,9.73
2018-06-15T09:16:30.689Z,14.93
2018-06-15T09:18:58.179Z,10.53
2018-06-15T09:21:25.645Z,10.97
2018-06-15T09:23:53.082Z,11.00
2018-06-15T09:26:20.719Z,15.27
2018-06-15T09:28:48.299Z,10.40
2018-06-15T09:31:16.030Z,15.53
2018-06-15T09:33:43.515Z,17.60
2018-06-15T09:36:10.962Z,14.70
2018-06-15T09:38:38.448Z,9.97
2018-06-15T09:41:05.877Z,11.83
2018-06-15T09:43:33.338Z,7.20
2018-06-15T09:46:00.731Z,6.90
2018-06-15T09:48:28.233Z,5.10
2018-06-15T09:50:55.722Z,7.33
2018-06-15T09:53:23.121Z,6.80
2018-06-15T09:55:50.749Z,5.70
2018-06-15T09:58:18.146Z,5.60
2018-06-15T10:00:49.455Z,6.30
2018-06-15T10:03:17.139Z,4.70
2018-06-15T10:05:44.539Z,5.50
2018-06-15T10:08:12.135Z,5.90
2018-06-15T10:10:39.537Z,5.23
2018-06-15T10:13:07.298Z,5.43
2018-06-15T10:15:34.774Z,5.80
2018-06-15T10:18:02.255Z,8.03
2018-06-15T10:20:29.718Z,5.00
2018-06-15T10:22:57.232Z,6.70
2018-06-15T10:25:24.767Z,4.80
2018-06-15T10:27:52.189Z,6.13
2018-06-15T10:30:19.682Z,6.37
2018-06-15T10:32:47.126Z,4.30
2018-06-15T10:35:14.578Z,3.83
2018-06-15T10:37:41.973Z,5.90
2018-06-15T10:40:09.445Z,7.80
2018-06-15T10:42:36.881Z,9.27
2018-06-15T10:45:04.517Z,6.60
2018-06-15T10:47:32.015Z,6.60
2018-06-15T10:49:59.430Z,7.07
2018-06-15T10:52:26.878Z,4.50
2018-06-15T10:54:54.634Z,9.53
2018-06-15T10:57:22.014Z,5.90
2018-06-15T10:59:49.622Z,3.70
2018-06-15T11:02:17.441Z,4.00
2018-06-15T11:04:44.900Z,4.43
2018-06-15T11:07:12.426Z,4.70
2018-06-15T11:09:40.637Z,4.20
2018-06-15T11:12:08.027Z,5.60
2018-06-15T11:14:35.645Z,3.87
2018-06-15T11:17:03.078Z,9.60
2018-06-15T11:19:30.556Z,4.43
2018-06-15T11:21:58.082Z,5.40
2018-06-15T11:24:25.557Z,4.63
2018-06-15T11:26:53.049Z,4.20
2018-06-15T11:29:20.874Z,4.77
2018-06-15T11:31:48.378Z,3.93
2018-06-15T11:34:15.789Z,4.73
2018-06-15T11:36:43.303Z,6.37
2018-06-15T11:39:10.930Z,3.73
2018-06-15T11:41:38.429Z,4.60
2018-06-15T11:44:06.032Z,4.03
2018-06-15T11:46:33.483Z,6.30
2018-06-15T11:49:00.938Z,4.20
2018-06-15T11:51:28.345Z,4.00
2018-06-15T11:53:55.796Z,6.40
2018-06-15T11:56:23.365Z,5.83
2018-06-15T11:58:50.804Z,3.80
2018-06-15T12:01:18.552Z,4.70
2018-06-15T12:03:46.247Z,6.40
2018-06-15T12:06:13.686Z,4.87
2018-06-15T12:08:41.191Z,32.93
2018-06-15T12:11:08.855Z,16.60
2018-06-15T12:13:36.715Z,6.43
2018-06-15T12:16:04.543Z,3.70
2018-06-15T12:18:32.046Z,7.73
2018-06-15T12:20:59.603Z,6.00
2018-06-15T12:23:27.102Z,6.07
2018-06-15T12:25:54.518Z,7.10
2018-06-15T12:28:22.199Z,6.00
2018-06-15T12:30:49.682Z,5.07
2018-06-15T12:33:17.427Z,6.67
2018-06-15T12:35:44.896Z,7.03
2018-06-15T12:38:12.352Z,7.00
2018-06-15T12:40:39.820Z,5.30
2018-06-15T12:43:07.500Z,6.13
2018-06-15T12:45:35.003Z,4.60
2018-06-15T12:48:02.615Z,5.73
2018-06-15T12:50:30.420Z,4.40
2018-06-15T12:52:57.826Z,3.93
2018-06-15T12:55:25.493Z,6.27
2018-06-15T12:57:53.092Z,3.23
2018-06-15T13:00:20.837Z,5.37
2018-06-15T13:02:48.687Z,3.57
2018-06-15T13:05:16.382Z,4.40
2018-06-15T13:07:43.925Z,5.60
2018-06-15T13:10:11.617Z,3.73
2018-06-15T13:12:39.078Z,21.13
2018-06-15T13:15:06.679Z,3.20
2018-06-15T13:17:34.166Z,5.03
2018-06-15T13:20:01.822Z,4.00
2018-06-15T13:22:29.639Z,5.17
2018-06-15T13:24:57.142Z,4.97
2018-06-15T13:27:24.908Z,3.00
2018-06-15T13:29:52.379Z,5.03
2018-06-15T13:32:19.968Z,4.53
2018-06-15T13:34:47.437Z,5.50
2018-06-15T13:37:15.084Z,2.43
2018-06-15T13:39:42.611Z,2.03
2018-06-15T13:42:10.338Z,2.80
2018-06-15T13:44:37.951Z,2.57
2018-06-15T13:47:05.371Z,2.87
2018-06-15T13:49:32.934Z,3.97
2018-06-15T13:52:00.395Z,4.90
2018-06-15T13:54:27.858Z,3.80
2018-06-15T13:56:55.578Z,4.17
2018-06-15T13:59:23.046Z,6.50
2018-06-15T14:01:50.510Z,7.97
2018-06-15T14:04:17.978Z,4.17
2018-06-15T14:06:45.515Z,6.70
2018-06-15T14:09:13.174Z,6.40
2018-06-15T14:11:40.887Z,4.20
2018-06-15T14:14:08.466Z,3.40
2018-06-15T14:16:36.189Z,3.60
2018-06-15T14:19:03.853Z,3.60
2018-06-15T14:21:31.446Z,4.47
2018-06-15T14:23:58.969Z,3.23
2018-06-15T14:26:26.418Z,4.00
2018-06-15T14:28:53.944Z,7.20
2018-06-15T14:31:21.679Z,6.90
2018-06-15T14:33:49.300Z,4.73
2018-06-15T14:36:16.862Z,2.50
2018-06-15T14:38:44.321Z,3.57
2018-06-15T14:41:11.816Z,4.30
2018-06-15T14:43:39.296Z,9.70
2018-06-15T14:46:06.835Z,6.57
2018-06-15T14:48:34.431Z,2.90
2018-06-15T14:51:01.912Z,2.97
2018-06-15T14:53:29.421Z,4.80
2018-06-15T14:55:56.881Z,9.07
2018-06-15T14:58:24.346Z,5.30
2018-06-15T15:00:51.758Z,3.43
2018-06-15T15:03:19.194Z,6.10
2018-06-15T15:05:46.751Z,6.03
2018-06-15T15:08:14.263Z,4.40
2018-06-15T15:10:41.674Z,4.90
2018-06-15T15:13:09.106Z,5.43
2018-06-15T15:15:36.802Z,2.60
2018-06-15T15:18:04.204Z,3.97
2018-06-15T15:20:32.106Z,3.07
2018-06-15T15:22:59.510Z,6.53
2018-06-15T15:25:26.929Z,5.40
2018-06-15T15:27:54.437Z,7.73
2018-06-15T15:30:21.899Z,4.80
2018-06-15T15:32:49.386Z,3.67
2018-06-15T15:35:16.838Z,4.90
2018-06-15T15:37:44.285Z,3.10
2018-06-15T15:40:11.745Z,3.67
2018-06-15T15:42:39.444Z,5.33
2018-06-15T15:45:06.918Z,3.27
2018-06-15T15:47:34.366Z,9.30
2018-06-15T15:50:01.861Z,4.97
2018-06-15T15:52:29.610Z,5.67
2018-06-15T15:54:57.079Z,4.47
2018-06-15T15:57:24.591Z,2.10
2018-06-15T15:59:52.323Z,7.83
2018-06-15T16:02:19.810Z,7.00
2018-06-15T16:04:47.281Z,3.37
2018-06-15T16:07:14.889Z,5.47
2018-06-15T16:09:42.417Z,6.83
2018-06-15T16:12:09.851Z,3.23
2018-06-15T16:14:37.380Z,7.07
2018-06-15T16:17:04.991Z,5.10
2018-06-15T16:19:32.447Z,5.30
2018-06-15T16:22:00.176Z,5.83
2018-06-15T16:24:27.657Z,6.13
2018-06-15T16:26:55.181Z,5.43
2018-06-15T16:29:22.637Z,4.87
2018-06-15T16:31:50.120Z,5.47
2018-06-15T16:34:17.596Z,6.37
2018-06-15T16:36:45.046Z,4.87
2018-06-15T16:39:12.470Z,9.13
2018-06-15T16:41:40.090Z,4.53
2018-06-15T16:44:07.505Z,7.33
2018-06-15T16:46:34.921Z,6.00
2018-06-15T16:49:02.794Z,7.80
2018-06-15T16:51:30.427Z,3.20
2018-06-15T16:53:57.888Z,6.83
2018-06-15T16:56:25.433Z,4.77
2018-06-15T16:58:53.077Z,5.73
2018-06-15T17:01:20.498Z,14.63
2018-06-15T17:03:47.971Z,21.43
2018-06-15T17:06:15.673Z,29.50
2018-06-15T17:08:43.440Z,6.07
2018-06-15T17:11:11.115Z,8.50
2018-06-15T17:13:38.750Z,6.10
2018-06-15T17:16:06.955Z,6.80
2018-06-15T17:18:34.421Z,5.43
2018-06-15T17:21:01.899Z,9.03
2018-06-15T17:23:29.646Z,6.40
2018-06-15T17:25:57.083Z,7.57
2018-06-15T17:28:24.726Z,5.60
2018-06-15T17:30:52.219Z,9.10
2018-06-15T17:33:19.966Z,7.63
2018-06-15T17:35:47.668Z,5.90
2018-06-15T17:38:15.038Z,5.93
2018-06-15T17:40:42.738Z,4.63
2018-06-15T17:43:10.189Z,5.73
2018-06-15T17:45:37.869Z,8.50
2018-06-15T17:48:05.467Z,4.93
2018-06-15T17:50:33.059Z,6.83
2018-06-15T17:53:00.494Z,4.17
2018-06-15T17:55:28.210Z,7.07
2018-06-15T17:57:55.706Z,6.63
2018-06-15T18:00:23.157Z,4.40
2018-06-15T18:02:50.626Z,7.47
2018-06-15T18:05:18.099Z,27.40
2018-06-15T18:07:45.757Z,129.73
2018-06-15T18:10:13.245Z,15.60
2018-06-15T18:12:40.764Z,9.20
2018-06-15T18:15:08.509Z,34.10
2018-06-15T18:17:36.275Z,6.27
2018-06-15T18:20:04.014Z,7.70
2018-06-15T18:22:31.711Z,4.47
2018-06-15T18:24:59.290Z,7.83
2018-06-15T18:27:26.773Z,8.23
2018-06-15T18:29:54.226Z,10.67
2018-06-15T18:32:21.686Z,15.87
2018-06-15T18:34:49.116Z,5.70
2018-06-15T18:37:16.663Z,7.47
2018-06-15T18:39:44.054Z,7.60
2018-06-15T18:42:11.495Z,8.10
2018-06-15T18:44:38.958Z,7.33
2018-06-15T18:47:06.555Z,5.50
2018-06-15T18:49:33.927Z,5.03
2018-06-15T18:52:01.608Z,7.47
2018-06-15T18:54:29.166Z,7.80
2018-06-15T18:56:56.721Z,8.00
2018-06-15T18:59:24.183Z,5.27
2018-06-15T19:01:51.607Z,4.60
2018-06-15T19:04:20.206Z,5.53
2018-06-15T19:06:48.411Z,5.33
2018-06-15T19:09:15.854Z,6.20
2018-06-15T19:11:43.593Z,8.23
2018-06-15T19:14:11.083Z,6.90
2018-06-15T19:16:38.605Z,9.57
2018-06-15T19:19:06.666Z,3.63
2018-06-15T19:21:34.645Z,5.30
2018-06-15T19:24:02.483Z,6.97
2018-06-15T19:26:30.343Z,6.70
2018-06-15T19:28:58.426Z,5.17
2018-06-15T19:31:26.134Z,7.43
2018-06-15T19:33:53.585Z,5.60
2018-06-15T19:36:21.062Z,5.90
2018-06-15T19:38:48.689Z,6.00
2018-06-15T19:41:16.112Z,5.67
2018-06-15T19:43:43.799Z,4.40
2018-06-15T19:46:11.321Z,8.63
2018-06-15T19:48:38.760Z,7.17
2018-06-15T19:51:06.170Z,4.47
2018-06-15T19:53:33.621Z,5.00
2018-06-15T19:56:01.064Z,8.77
2018-06-15T19:58:28.545Z,6.87
2018-06-15T20:00:56.105Z,6.13
2018-06-15T20:03:23.790Z,9.30
2018-06-15T20:05:51.297Z,14.23
2018-06-15T20:08:18.730Z,10.73
2018-06-15T20:10:46.474Z,9.37
2018-06-15T20:13:13.935Z,12.03
2018-06-15T20:15:41.622Z,8.47
2018-06-15T20:18:09.127Z,8.47
2018-06-15T20:20:36.559Z,5.43
2018-06-15T20:23:03.994Z,8.90
2018-06-15T20:25:31.501Z,10.50
2018-06-15T20:27:59.225Z,13.30
2018-06-15T20:30:26.780Z,11.43
2018-06-15T20:32:54.503Z,7.90
2018-06-15T20:35:21.957Z,6.40
2018-06-15T20:37:49.662Z,9.80
2018-06-15T20:40:17.141Z,9.17
2018-06-15T20:42:45.319Z,9.43
2018-06-15T20:45:12.815Z,7.30
2018-06-15T20:47:40.599Z,10.60
2018-06-15T20:50:08.187Z,9.00
2018-06-15T20:52:35.917Z,10.87
2018-06-15T20:55:03.492Z,10.43
2018-06-15T20:57:31.076Z,8.23
2018-06-15T20:59:58.768Z,8.90
2018-06-15T21:02:26.435Z,7.57
2018-06-15T21:04:54.225Z,18.17
2018-06-15T21:07:21.683Z,12.13
2018-06-15T21:09:49.330Z,7.67
2018-06-15T21:12:16.786Z,10.67
2018-06-15T21:14:44.507Z,6.43
2018-06-15T21:17:11.973Z,12.60
2018-06-15T21:19:39.464Z,10.30
2018-06-15T21:22:06.945Z,9.30
2018-06-15T21:24:34.388Z,14.03
2018-06-15T21:27:02.060Z,10.23
2018-06-15T21:29:29.613Z,7.93
2018-06-15T21:31:57.141Z,9.80
2018-06-15T21:34:24.726Z,12.47
2018-06-15T21:36:52.177Z,5.63
2018-06-15T21:39:19.711Z,11.57
2018-06-15T21:41:47.192Z,10.50
2018-06-15T21:44:14.663Z,10.20
2018-06-15T21:46:42.125Z,10.27
2018-06-15T21:49:09.586Z,14.77
2018-06-15T21:51:37.051Z,6.57
2018-06-15T21:54:04.654Z,10.00
2018-06-15T21:56:32.091Z,9.77
2018-06-15T21:58:59.691Z,8.10
2018-06-15T22:01:28.888Z,5.50
2018-06-15T22:03:56.479Z,6.73
2018-06-15T22:06:23.971Z,9.23
2018-06-15T22:08:51.455Z,10.47
2018-06-15T22:11:18.910Z,8.30
2018-06-15T22:13:46.314Z,5.60
2018-06-15T22:16:14.109Z,10.10
2018-06-15T22:18:41.593Z,10.57
2018-06-15T22:21:09.003Z,10.90
2018-06-15T22:23:36.552Z,7.60
2018-06-15T22:26:04.276Z,5.67
2018-06-15T22:28:31.824Z,13.50
2018-06-15T22:30:59.306Z,8.50
2018-06-15T22:33:26.798Z,7.43
2018-06-15T22:35:54.222Z,9.27
2018-06-15T22:38:22.126Z,7.33
2018-06-15T22:40:49.628Z,13.07
2018-06-15T22:43:17.549Z,8.33
2018-06-15T22:45:45.011Z,13.90
2018-06-15T22:48:12.446Z,8.83
2018-06-15T22:50:39.880Z,7.70
2018-06-15T22:53:07.418Z,7.23
2018-06-15T22:55:34.847Z,10.73
2018-06-15T22:58:02.381Z,10.40
2018-06-15T23:00:29.929Z,14.20
2018-06-15T23:02:57.470Z,7.00
2018-06-15T23:05:24.902Z,8.63
2018-06-15T23:07:52.434Z,11.70
2018-06-15T23:10:19.840Z,8.87
2018-06-15T23:12:47.343Z,14.03
2018-06-15T23:15:14.778Z,8.90
2018-06-15T23:17:42.286Z,7.03
2018-06-15T23:20:09.804Z,6.77
2018-06-15T23:22:37.394Z,6.90
2018-06-15T23:25:04.870Z,9.13
2018-06-15T23:27:32.342Z,8.70
2018-06-15T23:29:59.774Z,9.83
2018-06-15T23:32:27.182Z,10.00
2018-06-15T23:34:54.582Z,9.47
2018-06-15T23:37:21.998Z,8.53
2018-06-15T23:39:49.385Z,8.10
2018-06-15T23:42:16.910Z,11.00
2018-06-15T23:44:44.339Z,5.77
2018-06-15T23:47:11.803Z,6.50
2018-06-15T23:49:39.284Z,7.40
2018-06-15T23:52:06.932Z,10.10
2018-06-15T23:54:34.415Z,5.37
2018-06-15T23:57:01.886Z,8.83
2018-06-15T23:59:29.357Z,10.30
